sensor_id;sensor_type;location;lat;lon;timestamp;temperature;humidity
74520;DHT22;63002;48.134;-1.948;2023-09-19T05:02:56;24.30;53.90
74520;DHT22;63002;48.134;-1.948;2023-09-19T05:05:23;23.90;54.00
74520;DHT22;63002;48.134;-1.948;2023-09-19T05:07:49;23.90;55.00
74520;DHT22;63002;48.134;-1.948;2023-09-19T05:10:16;24.10;55.00
74520;DHT22;63002;48.134;-1.948;2023-09-19T05:12:44;24.10;55.00
74520;DHT22;63002;48.134;-1.948;2023-09-19T05:15:14;24.20;55.20
74520;DHT22;63002;48.134;-1.948;2023-09-19T05:17:40;24.20;55.20
74520;DHT22;63002;48.134;-1.948;2023-09-19T05:20:07;24.30;55.40
74520;DHT22;63002;48.134;-1.948;2023-09-19T05:22:42;24.30;55.40
74520;DHT22;63002;48.134;-1.948;2023-09-19T05:25:09;24.30;55.50
74520;DHT22;63002;48.134;-1.948;2023-09-19T05:27:35;24.20;55.70
74520;DHT22;63002;48.134;-1.948;2023-09-19T05:30:01;24.30;55.60
74520;DHT22;63002;48.134;-1.948;2023-09-19T05:32:27;24.30;55.40
74520;DHT22;63002;48.134;-1.948;2023-09-19T05:34:53;24.40;55.30
74520;DHT22;63002;48.134;-1.948;2023-09-19T05:37:19;24.50;55.30
74520;DHT22;63002;48.134;-1.948;2023-09-19T05:39:45;24.50;55.10
74520;DHT22;63002;48.134;-1.948;2023-09-19T05:42:11;24.40;54.40
74520;DHT22;63002;48.134;-1.948;2023-09-19T05:44:37;24.20;54.20
74520;DHT22;63002;48.134;-1.948;2023-09-19T05:47:03;24.20;54.20
74520;DHT22;63002;48.134;-1.948;2023-09-19T05:49:29;24.30;54.10
74520;DHT22;63002;48.134;-1.948;2023-09-19T05:51:55;24.30;54.10
74520;DHT22;63002;48.134;-1.948;2023-09-19T05:54:22;24.20;54.00
74520;DHT22;63002;48.134;-1.948;2023-09-19T05:56:47;24.20;53.70
74520;DHT22;63002;48.134;-1.948;2023-09-19T05:59:14;24.10;53.80
74520;DHT22;63002;48.134;-1.948;2023-09-19T06:01:42;24.10;53.80
74520;DHT22;63002;48.134;-1.948;2023-09-19T06:04:08;24.10;53.80
74520;DHT22;63002;48.134;-1.948;2023-09-19T06:06:33;24.10;53.80
74520;DHT22;63002;48.134;-1.948;2023-09-19T06:09:06;24.10;53.60
74520;DHT22;63002;48.134;-1.948;2023-09-19T06:11:36;24.10;53.30
74520;DHT22;63002;48.134;-1.948;2023-09-19T06:14:03;24.10;53.40
74520;DHT22;63002;48.134;-1.948;2023-09-19T06:16:31;24.00;53.40
74520;DHT22;63002;48.134;-1.948;2023-09-19T06:18:58;23.90;53.30
74520;DHT22;63002;48.134;-1.948;2023-09-19T06:21:26;23.80;53.00
74520;DHT22;63002;48.134;-1.948;2023-09-19T06:23:55;23.80;53.20
74520;DHT22;63002;48.134;-1.948;2023-09-19T06:26:23;23.70;53.10
74520;DHT22;63002;48.134;-1.948;2023-09-19T06:28:52;23.70;53.30
74520;DHT22;63002;48.134;-1.948;2023-09-19T06:31:18;23.70;53.20
74520;DHT22;63002;48.134;-1.948;2023-09-19T06:33:43;23.70;53.00
74520;DHT22;63002;48.134;-1.948;2023-09-19T06:36:09;23.70;53.10
74520;DHT22;63002;48.134;-1.948;2023-09-19T06:38:37;23.60;53.20
74520;DHT22;63002;48.134;-1.948;2023-09-19T06:41:04;23.60;53.20
74520;DHT22;63002;48.134;-1.948;2023-09-19T06:43:33;23.10;52.40
74520;DHT22;63002;48.134;-1.948;2023-09-19T06:46:02;23.20;53.60
74520;DHT22;63002;48.134;-1.948;2023-09-19T06:48:29;23.30;53.50
74520;DHT22;63002;48.134;-1.948;2023-09-19T06:50:56;23.40;53.40
74520;DHT22;63002;48.134;-1.948;2023-09-19T06:53:24;23.50;53.40
74520;DHT22;63002;48.134;-1.948;2023-09-19T06:55:50;23.70;53.20
74520;DHT22;63002;48.134;-1.948;2023-09-19T06:58:16;23.70;53.20
74520;DHT22;63002;48.134;-1.948;2023-09-19T07:00:42;23.70;53.40
74520;DHT22;63002;48.134;-1.948;2023-09-19T07:03:08;23.70;53.40
74520;DHT22;63002;48.134;-1.948;2023-09-19T07:05:37;23.80;53.40
74520;DHT22;63002;48.134;-1.948;2023-09-19T07:08:05;23.80;53.40
74520;DHT22;63002;48.134;-1.948;2023-09-19T07:10:32;23.80;53.50
74520;DHT22;63002;48.134;-1.948;2023-09-19T07:12:58;23.80;53.60
74520;DHT22;63002;48.134;-1.948;2023-09-19T07:15:24;23.90;53.40
74520;DHT22;63002;48.134;-1.948;2023-09-19T07:17:51;23.90;53.50
74520;DHT22;63002;48.134;-1.948;2023-09-19T07:20:19;23.90;53.40
74520;DHT22;63002;48.134;-1.948;2023-09-19T07:22:45;23.90;53.40
74520;DHT22;63002;48.134;-1.948;2023-09-19T07:25:10;24.00;53.20
74520;DHT22;63002;48.134;-1.948;2023-09-19T07:27:36;24.00;53.40
74520;DHT22;63002;48.134;-1.948;2023-09-19T07:30:02;23.90;53.60
74520;DHT22;63002;48.134;-1.948;2023-09-19T07:32:27;24.00;53.60
74520;DHT22;63002;48.134;-1.948;2023-09-19T07:34:53;24.10;53.60
74520;DHT22;63002;48.134;-1.948;2023-09-19T07:37:20;24.10;53.50
74520;DHT22;63002;48.134;-1.948;2023-09-19T07:39:46;24.00;53.70
74520;DHT22;63002;48.134;-1.948;2023-09-19T07:42:12;24.10;53.60
74520;DHT22;63002;48.134;-1.948;2023-09-19T07:44:43;24.10;53.70
74520;DHT22;63002;48.134;-1.948;2023-09-19T07:47:13;24.10;53.60
74520;DHT22;63002;48.134;-1.948;2023-09-19T07:49:39;24.10;53.60
74520;DHT22;63002;48.134;-1.948;2023-09-19T07:52:05;24.00;53.80
74520;DHT22;63002;48.134;-1.948;2023-09-19T07:54:30;24.10;53.80
74520;DHT22;63002;48.134;-1.948;2023-09-19T07:57:01;24.10;53.80
74520;DHT22;63002;48.134;-1.948;2023-09-19T07:59:27;24.10;53.80
74520;DHT22;63002;48.134;-1.948;2023-09-19T08:01:53;24.10;53.80
74520;DHT22;63002;48.134;-1.948;2023-09-19T08:04:19;24.10;53.80
74520;DHT22;63002;48.134;-1.948;2023-09-19T08:06:45;24.10;53.80
74520;DHT22;63002;48.134;-1.948;2023-09-19T08:09:11;24.20;53.80
74520;DHT22;63002;48.134;-1.948;2023-09-19T08:11:39;24.10;53.90
74520;DHT22;63002;48.134;-1.948;2023-09-19T08:14:05;24.10;54.00
74520;DHT22;63002;48.134;-1.948;2023-09-19T08:16:33;24.10;54.00
74520;DHT22;63002;48.134;-1.948;2023-09-19T08:18:58;24.10;54.10
74520;DHT22;63002;48.134;-1.948;2023-09-19T08:21:25;24.10;54.10
74520;DHT22;63002;48.134;-1.948;2023-09-19T08:23:51;24.10;54.00
74520;DHT22;63002;48.134;-1.948;2023-09-19T08:26:18;24.10;54.10
74520;DHT22;63002;48.134;-1.948;2023-09-19T08:28:45;24.10;54.00
74520;DHT22;63002;48.134;-1.948;2023-09-19T08:31:11;24.10;54.00
74520;DHT22;63002;48.134;-1.948;2023-09-19T08:33:37;24.20;54.00
74520;DHT22;63002;48.134;-1.948;2023-09-19T08:36:03;24.10;54.00
74520;DHT22;63002;48.134;-1.948;2023-09-19T08:38:31;24.10;54.00
74520;DHT22;63002;48.134;-1.948;2023-09-19T08:40:59;24.10;54.00
74520;DHT22;63002;48.134;-1.948;2023-09-19T08:43:26;24.20;54.00
74520;DHT22;63002;48.134;-1.948;2023-09-19T08:46:15;24.20;54.00
74520;DHT22;63002;48.134;-1.948;2023-09-19T08:49:03;24.20;54.00
74520;DHT22;63002;48.134;-1.948;2023-09-19T08:51:46;24.20;54.00
74520;DHT22;63002;48.134;-1.948;2023-09-19T08:54:24;24.20;53.90
74520;DHT22;63002;48.134;-1.948;2023-09-19T08:56:54;24.30;53.90
74520;DHT22;63002;48.134;-1.948;2023-09-19T08:59:23;24.20;54.00
74520;DHT22;63002;48.134;-1.948;2023-09-19T09:01:50;24.30;53.90
74520;DHT22;63002;48.134;-1.948;2023-09-19T09:04:19;24.30;53.90
74520;DHT22;63002;48.134;-1.948;2023-09-19T09:06:46;24.30;53.90
74520;DHT22;63002;48.134;-1.948;2023-09-19T09:09:15;24.30;53.90
74520;DHT22;63002;48.134;-1.948;2023-09-19T09:11:40;24.30;53.80
74520;DHT22;63002;48.134;-1.948;2023-09-19T09:14:07;24.30;53.80
74520;DHT22;63002;48.134;-1.948;2023-09-19T09:16:33;24.40;53.80
74520;DHT22;63002;48.134;-1.948;2023-09-19T09:18:58;24.40;53.90
74520;DHT22;63002;48.134;-1.948;2023-09-19T09:21:25;24.40;53.90
74520;DHT22;63002;48.134;-1.948;2023-09-19T09:23:51;24.40;53.80
74520;DHT22;63002;48.134;-1.948;2023-09-19T09:29:04;24.40;53.80
74520;DHT22;63002;48.134;-1.948;2023-09-19T09:31:30;24.40;53.80
74520;DHT22;63002;48.134;-1.948;2023-09-19T09:33:57;24.40;53.80
74520;DHT22;63002;48.134;-1.948;2023-09-19T09:36:37;24.40;53.80
74520;DHT22;63002;48.134;-1.948;2023-09-19T09:39:04;24.40;53.90
74520;DHT22;63002;48.134;-1.948;2023-09-19T09:41:42;24.40;53.90
74520;DHT22;63002;48.134;-1.948;2023-09-19T09:44:16;24.40;53.90
74520;DHT22;63002;48.134;-1.948;2023-09-19T09:46:46;24.40;53.90
74520;DHT22;63002;48.134;-1.948;2023-09-19T09:49:25;24.40;53.90
74520;DHT22;63002;48.134;-1.948;2023-09-19T09:52:02;24.40;53.90
74520;DHT22;63002;48.134;-1.948;2023-09-19T09:54:33;24.40;54.00
74520;DHT22;63002;48.134;-1.948;2023-09-19T09:57:07;24.40;53.90
74520;DHT22;63002;48.134;-1.948;2023-09-19T09:59:55;24.40;53.90
74520;DHT22;63002;48.134;-1.948;2023-09-19T10:02:34;24.40;54.00
74520;DHT22;63002;48.134;-1.948;2023-09-19T10:05:16;24.40;54.00
74520;DHT22;63002;48.134;-1.948;2023-09-19T10:07:55;24.40;54.00
74520;DHT22;63002;48.134;-1.948;2023-09-19T10:10:39;24.40;54.00
74520;DHT22;63002;48.134;-1.948;2023-09-19T10:13:12;24.40;54.00
74520;DHT22;63002;48.134;-1.948;2023-09-19T10:15:39;24.30;54.10
74520;DHT22;63002;48.134;-1.948;2023-09-19T10:18:14;24.40;54.10
74520;DHT22;63002;48.134;-1.948;2023-09-19T10:20:45;24.30;54.10
74520;DHT22;63002;48.134;-1.948;2023-09-19T10:23:12;24.40;54.10
74520;DHT22;63002;48.134;-1.948;2023-09-19T10:25:42;24.30;54.20
74520;DHT22;63002;48.134;-1.948;2023-09-19T10:28:10;24.30;54.20
74520;DHT22;63002;48.134;-1.948;2023-09-19T10:30:43;24.30;54.10
74520;DHT22;63002;48.134;-1.948;2023-09-19T10:33:11;24.30;54.20
74520;DHT22;63002;48.134;-1.948;2023-09-19T10:35:59;24.40;54.20
74520;DHT22;63002;48.134;-1.948;2023-09-19T10:38:27;24.40;54.20
74520;DHT22;63002;48.134;-1.948;2023-09-19T10:40:55;24.30;54.20
74520;DHT22;63002;48.134;-1.948;2023-09-19T10:43:33;24.40;54.20
74520;DHT22;63002;48.134;-1.948;2023-09-19T10:46:02;24.40;54.10
74520;DHT22;63002;48.134;-1.948;2023-09-19T10:48:31;24.40;54.10
74520;DHT22;63002;48.134;-1.948;2023-09-19T10:53:27;24.40;54.10
74520;DHT22;63002;48.134;-1.948;2023-09-19T10:55:57;24.40;54.10
74520;DHT22;63002;48.134;-1.948;2023-09-19T10:58:29;24.40;54.10
74520;DHT22;63002;48.134;-1.948;2023-09-19T11:00:57;24.40;54.10
74520;DHT22;63002;48.134;-1.948;2023-09-19T11:03:38;24.40;54.10
74520;DHT22;63002;48.134;-1.948;2023-09-19T11:06:15;24.40;54.10
74520;DHT22;63002;48.134;-1.948;2023-09-19T11:09:04;24.40;54.10
74520;DHT22;63002;48.134;-1.948;2023-09-19T11:30:32;24.40;54.00
74520;DHT22;63002;48.134;-1.948;2023-09-19T11:33:22;24.50;54.00
74520;DHT22;63002;48.134;-1.948;2023-09-19T11:36:16;24.50;54.00
74520;DHT22;63002;48.134;-1.948;2023-09-19T11:43:47;24.50;54.00
74520;DHT22;63002;48.134;-1.948;2023-09-19T11:46:13;24.50;54.00
74520;DHT22;63002;48.134;-1.948;2023-09-19T11:48:48;24.50;54.00
74520;DHT22;63002;48.134;-1.948;2023-09-19T11:51:16;24.50;54.00
74520;DHT22;63002;48.134;-1.948;2023-09-19T11:53:48;24.50;54.00
74520;DHT22;63002;48.134;-1.948;2023-09-19T11:56:16;24.50;54.00
74520;DHT22;63002;48.134;-1.948;2023-09-19T11:58:46;24.50;54.10
74520;DHT22;63002;48.134;-1.948;2023-09-19T12:01:15;24.50;54.10
74520;DHT22;63002;48.134;-1.948;2023-09-19T12:03:47;24.50;54.10
74520;DHT22;63002;48.134;-1.948;2023-09-19T12:06:16;24.50;54.00
74520;DHT22;63002;48.134;-1.948;2023-09-19T12:08:43;24.50;54.00
74520;DHT22;63002;48.134;-1.948;2023-09-19T12:11:13;24.50;54.00
74520;DHT22;63002;48.134;-1.948;2023-09-19T12:13:47;24.50;54.00
74520;DHT22;63002;48.134;-1.948;2023-09-19T12:16:19;24.50;54.10
74520;DHT22;63002;48.134;-1.948;2023-09-19T12:18:48;24.50;54.00
74520;DHT22;63002;48.134;-1.948;2023-09-19T12:21:30;24.50;54.10
74520;DHT22;63002;48.134;-1.948;2023-09-19T12:24:04;24.50;54.00
74520;DHT22;63002;48.134;-1.948;2023-09-19T12:26:38;24.50;54.10
74520;DHT22;63002;48.134;-1.948;2023-09-19T12:29:05;24.50;54.00
74520;DHT22;63002;48.134;-1.948;2023-09-19T12:31:31;24.50;54.10
74520;DHT22;63002;48.134;-1.948;2023-09-19T12:34:02;24.50;54.00
74520;DHT22;63002;48.134;-1.948;2023-09-19T12:36:28;24.50;54.00
74520;DHT22;63002;48.134;-1.948;2023-09-19T12:38:58;24.50;54.00
74520;DHT22;63002;48.134;-1.948;2023-09-19T12:41:33;24.50;53.90
74520;DHT22;63002;48.134;-1.948;2023-09-19T12:44:01;24.50;54.00
74520;DHT22;63002;48.134;-1.948;2023-09-19T12:46:30;24.50;53.90
74520;DHT22;63002;48.134;-1.948;2023-09-19T12:49:17;24.50;54.00
74520;DHT22;63002;48.134;-1.948;2023-09-19T12:51:43;24.50;54.00
74520;DHT22;63002;48.134;-1.948;2023-09-19T12:54:09;24.50;54.00
74520;DHT22;63002;48.134;-1.948;2023-09-19T12:56:41;24.50;54.00
74520;DHT22;63002;48.134;-1.948;2023-09-19T12:59:12;24.50;54.10
74520;DHT22;63002;48.134;-1.948;2023-09-19T13:01:42;24.40;54.10
74520;DHT22;63002;48.134;-1.948;2023-09-19T13:04:12;24.50;54.00
74520;DHT22;63002;48.134;-1.948;2023-09-19T13:06:38;24.50;54.00
74520;DHT22;63002;48.134;-1.948;2023-09-19T13:09:12;24.50;54.00
74520;DHT22;63002;48.134;-1.948;2023-09-19T13:11:40;24.50;54.00
74520;DHT22;63002;48.134;-1.948;2023-09-19T13:17:05;24.40;54.00
74520;DHT22;63002;48.134;-1.948;2023-09-19T13:19:51;24.40;54.00
74520;DHT22;63002;48.134;-1.948;2023-09-19T13:22:41;24.50;54.00
74520;DHT22;63002;48.134;-1.948;2023-09-19T13:25:16;24.50;54.00
74520;DHT22;63002;48.134;-1.948;2023-09-19T13:27:52;24.50;54.10
74520;DHT22;63002;48.134;-1.948;2023-09-19T13:30:20;24.40;54.00
74520;DHT22;63002;48.134;-1.948;2023-09-19T13:32:46;24.50;54.00
74520;DHT22;63002;48.134;-1.948;2023-09-19T13:35:13;24.50;54.00
74520;DHT22;63002;48.134;-1.948;2023-09-19T13:37:40;24.50;53.90
74520;DHT22;63002;48.134;-1.948;2023-09-19T13:40:10;24.50;53.90
74520;DHT22;63002;48.134;-1.948;2023-09-19T13:42:37;24.50;54.00
74520;DHT22;63002;48.134;-1.948;2023-09-19T13:45:03;24.50;53.90
74520;DHT22;63002;48.134;-1.948;2023-09-19T13:47:36;24.50;53.90
74520;DHT22;63002;48.134;-1.948;2023-09-19T13:50:03;24.50;53.90
74520;DHT22;63002;48.134;-1.948;2023-09-19T13:52:30;24.50;53.90
74520;DHT22;63002;48.134;-1.948;2023-09-19T13:54:57;24.50;53.90
74520;DHT22;63002;48.134;-1.948;2023-09-19T13:57:23;24.50;53.90
74520;DHT22;63002;48.134;-1.948;2023-09-19T13:59:49;24.50;53.90
74520;DHT22;63002;48.134;-1.948;2023-09-19T14:02:15;24.50;53.90
74520;DHT22;63002;48.134;-1.948;2023-09-19T14:04:43;24.50;53.90
74520;DHT22;63002;48.134;-1.948;2023-09-19T14:07:09;24.50;53.90
74520;DHT22;63002;48.134;-1.948;2023-09-19T14:09:37;24.50;53.80
74520;DHT22;63002;48.134;-1.948;2023-09-19T14:12:03;24.50;53.90
74520;DHT22;63002;48.134;-1.948;2023-09-19T14:14:29;24.50;53.90
74520;DHT22;63002;48.134;-1.948;2023-09-19T14:16:55;24.50;53.80
74520;DHT22;63002;48.134;-1.948;2023-09-19T14:19:21;24.50;53.90
74520;DHT22;63002;48.134;-1.948;2023-09-19T14:21:47;24.50;53.80
74520;DHT22;63002;48.134;-1.948;2023-09-19T14:24:19;24.50;53.80
74520;DHT22;63002;48.134;-1.948;2023-09-19T14:26:45;24.50;53.90
74520;DHT22;63002;48.134;-1.948;2023-09-19T14:29:11;24.50;53.80
74520;DHT22;63002;48.134;-1.948;2023-09-19T14:31:38;24.50;53.80
74520;DHT22;63002;48.134;-1.948;2023-09-19T14:34:07;24.50;53.80
74520;DHT22;63002;48.134;-1.948;2023-09-19T14:36:35;24.50;53.80
74520;DHT22;63002;48.134;-1.948;2023-09-19T14:39:00;24.50;53.90
74520;DHT22;63002;48.134;-1.948;2023-09-19T14:41:26;24.50;53.80
74520;DHT22;63002;48.134;-1.948;2023-09-19T14:43:52;24.50;53.90
74520;DHT22;63002;48.134;-1.948;2023-09-19T14:46:18;24.50;53.90
74520;DHT22;63002;48.134;-1.948;2023-09-19T14:48:45;24.50;53.90
74520;DHT22;63002;48.134;-1.948;2023-09-19T14:51:14;24.50;53.80
74520;DHT22;63002;48.134;-1.948;2023-09-19T14:53:40;24.50;53.80
74520;DHT22;63002;48.134;-1.948;2023-09-19T14:56:09;24.50;53.80
74520;DHT22;63002;48.134;-1.948;2023-09-19T14:58:37;24.50;53.80
74520;DHT22;63002;48.134;-1.948;2023-09-19T15:01:12;24.50;53.80
74520;DHT22;63002;48.134;-1.948;2023-09-19T15:03:39;24.50;53.80
74520;DHT22;63002;48.134;-1.948;2023-09-19T15:06:09;24.50;53.80
74520;DHT22;63002;48.134;-1.948;2023-09-19T15:08:36;24.50;53.80
74520;DHT22;63002;48.134;-1.948;2023-09-19T15:11:06;24.50;53.80
74520;DHT22;63002;48.134;-1.948;2023-09-19T15:13:32;24.50;53.80
74520;DHT22;63002;48.134;-1.948;2023-09-19T15:16:02;24.50;53.70
74520;DHT22;63002;48.134;-1.948;2023-09-19T15:18:29;24.50;53.70
74520;DHT22;63002;48.134;-1.948;2023-09-19T15:21:02;24.50;53.80
74520;DHT22;63002;48.134;-1.948;2023-09-19T15:23:30;24.50;53.80
74520;DHT22;63002;48.134;-1.948;2023-09-19T15:25:57;24.50;53.80
74520;DHT22;63002;48.134;-1.948;2023-09-19T15:28:22;24.50;53.80
74520;DHT22;63002;48.134;-1.948;2023-09-19T15:30:58;24.50;53.70
74520;DHT22;63002;48.134;-1.948;2023-09-19T15:33:26;24.50;53.80
74520;DHT22;63002;48.134;-1.948;2023-09-19T15:36:01;24.50;53.80
74520;DHT22;63002;48.134;-1.948;2023-09-19T15:38:27;24.50;53.80
74520;DHT22;63002;48.134;-1.948;2023-09-19T15:40:54;24.60;53.80
74520;DHT22;63002;48.134;-1.948;2023-09-19T15:43:20;24.50;53.80
74520;DHT22;63002;48.134;-1.948;2023-09-19T15:45:48;24.50;53.80
74520;DHT22;63002;48.134;-1.948;2023-09-19T15:48:14;24.50;53.80
74520;DHT22;63002;48.134;-1.948;2023-09-19T15:50:40;24.50;53.80
74520;DHT22;63002;48.134;-1.948;2023-09-19T15:53:07;24.50;53.90
74520;DHT22;63002;48.134;-1.948;2023-09-19T15:55:39;24.60;53.80
74520;DHT22;63002;48.134;-1.948;2023-09-19T15:58:05;24.60;53.80
74520;DHT22;63002;48.134;-1.948;2023-09-19T16:00:34;24.60;53.80
74520;DHT22;63002;48.134;-1.948;2023-09-19T16:03:02;24.60;53.80
74520;DHT22;63002;48.134;-1.948;2023-09-19T16:05:34;24.60;53.80
74520;DHT22;63002;48.134;-1.948;2023-09-19T16:08:03;24.50;53.90
74520;DHT22;63002;48.134;-1.948;2023-09-19T16:10:29;24.60;53.80
74520;DHT22;63002;48.134;-1.948;2023-09-19T16:12:55;24.50;53.90
74520;DHT22;63002;48.134;-1.948;2023-09-19T16:15:21;24.60;53.80
74520;DHT22;63002;48.134;-1.948;2023-09-19T16:17:46;24.50;53.70
74520;DHT22;63002;48.134;-1.948;2023-09-19T16:20:12;24.60;53.80
74520;DHT22;63002;48.134;-1.948;2023-09-19T16:22:39;24.50;53.90
74520;DHT22;63002;48.134;-1.948;2023-09-19T16:25:06;24.50;53.70
74520;DHT22;63002;48.134;-1.948;2023-09-19T16:27:32;24.50;53.80
74520;DHT22;63002;48.134;-1.948;2023-09-19T16:29:57;24.50;53.90
74520;DHT22;63002;48.134;-1.948;2023-09-19T16:32:23;24.50;52.30
74520;DHT22;63002;48.134;-1.948;2023-09-19T16:34:49;24.50;52.60
74520;DHT22;63002;48.134;-1.948;2023-09-19T16:37:14;24.50;52.90
74520;DHT22;63002;48.134;-1.948;2023-09-19T16:39:40;24.50;53.10
74520;DHT22;63002;48.134;-1.948;2023-09-19T16:42:07;24.50;53.30
74520;DHT22;63002;48.134;-1.948;2023-09-19T16:44:34;24.50;53.50
74520;DHT22;63002;48.134;-1.948;2023-09-19T16:47:00;24.50;53.50
74520;DHT22;63002;48.134;-1.948;2023-09-19T16:49:28;24.50;53.60
74520;DHT22;63002;48.134;-1.948;2023-09-19T16:51:55;24.60;53.60
74520;DHT22;63002;48.134;-1.948;2023-09-19T16:54:21;24.50;53.70
74520;DHT22;63002;48.134;-1.948;2023-09-19T16:56:48;24.50;53.80
74520;DHT22;63002;48.134;-1.948;2023-09-19T16:59:14;24.50;53.80
74520;DHT22;63002;48.134;-1.948;2023-09-19T17:01:41;24.40;52.00
74520;DHT22;63002;48.134;-1.948;2023-09-19T17:04:07;24.20;50.90
74520;DHT22;63002;48.134;-1.948;2023-09-19T17:06:33;24.10;51.20
74520;DHT22;63002;48.134;-1.948;2023-09-19T17:08:59;24.10;51.40
74520;DHT22;63002;48.134;-1.948;2023-09-19T17:11:25;24.10;51.90
74520;DHT22;63002;48.134;-1.948;2023-09-19T17:13:51;24.10;51.90
74520;DHT22;63002;48.134;-1.948;2023-09-19T17:16:22;24.30;52.10
74520;DHT22;63002;48.134;-1.948;2023-09-19T17:18:52;24.40;52.20
74520;DHT22;63002;48.134;-1.948;2023-09-19T17:21:19;24.40;52.30
74520;DHT22;63002;48.134;-1.948;2023-09-19T17:23:45;24.40;52.40
74520;DHT22;63002;48.134;-1.948;2023-09-19T17:26:12;24.40;52.30
74520;DHT22;63002;48.134;-1.948;2023-09-19T17:28:46;24.50;52.40
74520;DHT22;63002;48.134;-1.948;2023-09-19T17:31:17;24.50;52.30
74520;DHT22;63002;48.134;-1.948;2023-09-19T17:33:45;24.50;52.30
74520;DHT22;63002;48.134;-1.948;2023-09-19T17:36:17;24.50;52.30
74520;DHT22;63002;48.134;-1.948;2023-09-19T17:38:45;24.50;52.30
74520;DHT22;63002;48.134;-1.948;2023-09-19T17:41:11;24.40;52.20
74520;DHT22;63002;48.134;-1.948;2023-09-19T17:43:40;24.30;52.90
74520;DHT22;63002;48.134;-1.948;2023-09-19T17:46:16;24.30;52.80
74520;DHT22;63002;48.134;-1.948;2023-09-19T17:48:50;24.30;52.90
74520;DHT22;63002;48.134;-1.948;2023-09-19T17:51:18;24.30;52.80
74520;DHT22;63002;48.134;-1.948;2023-09-19T17:53:45;24.30;52.70
74520;DHT22;63002;48.134;-1.948;2023-09-19T17:56:12;24.20;52.90
74520;DHT22;63002;48.134;-1.948;2023-09-19T17:58:40;24.20;52.80
74520;DHT22;63002;48.134;-1.948;2023-09-19T18:01:12;24.30;52.60
74520;DHT22;63002;48.134;-1.948;2023-09-19T18:03:39;24.30;52.90
74520;DHT22;63002;48.134;-1.948;2023-09-19T18:06:07;24.30;53.00
74520;DHT22;63002;48.134;-1.948;2023-09-19T18:08:33;24.30;53.00
74520;DHT22;63002;48.134;-1.948;2023-09-19T18:11:00;24.40;53.00
74520;DHT22;63002;48.134;-1.948;2023-09-19T18:13:27;24.40;53.10
74520;DHT22;63002;48.134;-1.948;2023-09-19T18:15:53;24.40;53.10
74520;DHT22;63002;48.134;-1.948;2023-09-19T18:18:20;24.50;53.10
74520;DHT22;63002;48.134;-1.948;2023-09-19T18:20:46;24.50;53.20
74520;DHT22;63002;48.134;-1.948;2023-09-19T18:23:12;24.50;53.10
74520;DHT22;63002;48.134;-1.948;2023-09-19T18:25:38;24.50;53.30
74520;DHT22;63002;48.134;-1.948;2023-09-19T18:28:04;24.40;53.40
74520;DHT22;63002;48.134;-1.948;2023-09-19T18:30:31;24.50;53.50
74520;DHT22;63002;48.134;-1.948;2023-09-19T18:32:59;24.50;53.20
74520;DHT22;63002;48.134;-1.948;2023-09-19T18:35:25;24.50;53.30
74520;DHT22;63002;48.134;-1.948;2023-09-19T18:37:55;24.60;53.40
74520;DHT22;63002;48.134;-1.948;2023-09-19T18:40:24;24.60;53.30
74520;DHT22;63002;48.134;-1.948;2023-09-19T18:42:49;24.70;53.20
74520;DHT22;63002;48.134;-1.948;2023-09-19T18:45:15;24.70;53.10
74520;DHT22;63002;48.134;-1.948;2023-09-19T18:47:41;24.70;53.20
74520;DHT22;63002;48.134;-1.948;2023-09-19T18:50:07;24.70;53.20
74520;DHT22;63002;48.134;-1.948;2023-09-19T18:52:36;24.70;53.20
74520;DHT22;63002;48.134;-1.948;2023-09-19T18:55:08;24.70;53.20
74520;DHT22;63002;48.134;-1.948;2023-09-19T18:57:35;24.70;53.20
74520;DHT22;63002;48.134;-1.948;2023-09-19T19:00:03;24.60;53.20
74520;DHT22;63002;48.134;-1.948;2023-09-19T19:02:29;24.60;53.20
74520;DHT22;63002;48.134;-1.948;2023-09-19T19:04:54;24.50;53.60
74520;DHT22;63002;48.134;-1.948;2023-09-19T19:07:23;24.40;54.90
74520;DHT22;63002;48.134;-1.948;2023-09-19T19:09:49;24.40;56.50
74520;DHT22;63002;48.134;-1.948;2023-09-19T19:12:15;24.40;56.90
74520;DHT22;63002;48.134;-1.948;2023-09-19T19:14:41;24.40;56.80
74520;DHT22;63002;48.134;-1.948;2023-09-19T19:17:10;24.50;57.10
74520;DHT22;63002;48.134;-1.948;2023-09-19T19:19:38;24.50;57.50
74520;DHT22;63002;48.134;-1.948;2023-09-19T19:22:04;24.50;57.00
74520;DHT22;63002;48.134;-1.948;2023-09-19T19:24:31;24.60;56.50
74520;DHT22;63002;48.134;-1.948;2023-09-19T19:26:59;24.60;56.90
74520;DHT22;63002;48.134;-1.948;2023-09-19T19:29:25;24.60;57.10
74520;DHT22;63002;48.134;-1.948;2023-09-19T19:31:50;24.60;57.00
74520;DHT22;63002;48.134;-1.948;2023-09-19T19:34:18;24.60;57.10
74520;DHT22;63002;48.134;-1.948;2023-09-19T19:36:43;24.60;57.30
74520;DHT22;63002;48.134;-1.948;2023-09-19T19:39:12;24.50;56.50
74520;DHT22;63002;48.134;-1.948;2023-09-19T19:41:41;24.50;57.70
74520;DHT22;63002;48.134;-1.948;2023-09-19T19:44:09;24.40;58.40
74520;DHT22;63002;48.134;-1.948;2023-09-19T19:46:35;24.40;59.20
74520;DHT22;63002;48.134;-1.948;2023-09-19T19:49:01;24.40;59.20
74520;DHT22;63002;48.134;-1.948;2023-09-19T19:51:28;24.40;59.50
74520;DHT22;63002;48.134;-1.948;2023-09-19T19:53:54;24.50;59.60
74520;DHT22;63002;48.134;-1.948;2023-09-19T19:56:21;24.50;59.80
74520;DHT22;63002;48.134;-1.948;2023-09-19T19:58:47;24.50;59.60
74520;DHT22;63002;48.134;-1.948;2023-09-19T20:01:14;24.50;59.90
74520;DHT22;63002;48.134;-1.948;2023-09-19T20:03:41;24.50;59.90
74520;DHT22;63002;48.134;-1.948;2023-09-19T20:06:08;24.50;60.20
74520;DHT22;63002;48.134;-1.948;2023-09-19T20:08:38;24.50;58.70
74520;DHT22;63002;48.134;-1.948;2023-09-19T20:11:05;24.60;58.00
74520;DHT22;63002;48.134;-1.948;2023-09-19T20:13:32;24.70;57.50
74520;DHT22;63002;48.134;-1.948;2023-09-19T20:15:59;24.80;57.90
74520;DHT22;63002;48.134;-1.948;2023-09-19T20:18:28;24.80;58.30
74520;DHT22;63002;48.134;-1.948;2023-09-19T20:20:54;24.80;57.50
74520;DHT22;63002;48.134;-1.948;2023-09-19T20:23:21;24.90;57.60
74520;DHT22;63002;48.134;-1.948;2023-09-19T20:25:48;24.80;58.10
74520;DHT22;63002;48.134;-1.948;2023-09-19T20:28:17;24.90;58.30
74520;DHT22;63002;48.134;-1.948;2023-09-19T20:30:43;24.80;58.40
74520;DHT22;63002;48.134;-1.948;2023-09-19T20:33:10;24.80;58.30
74520;DHT22;63002;48.134;-1.948;2023-09-19T20:35:40;24.80;58.20
74520;DHT22;63002;48.134;-1.948;2023-09-19T20:38:07;24.80;58.10
74520;DHT22;63002;48.134;-1.948;2023-09-19T20:40:34;24.80;58.60
74520;DHT22;63002;48.134;-1.948;2023-09-19T20:43:02;24.70;58.40
74520;DHT22;63002;48.134;-1.948;2023-09-19T20:45:28;24.70;58.50
74520;DHT22;63002;48.134;-1.948;2023-09-19T20:47:53;24.70;58.60
74520;DHT22;63002;48.134;-1.948;2023-09-19T20:50:20;24.60;58.80
74520;DHT22;63002;48.134;-1.948;2023-09-19T20:52:48;24.60;59.20
74520;DHT22;63002;48.134;-1.948;2023-09-19T20:55:14;24.60;58.90
74520;DHT22;63002;48.134;-1.948;2023-09-19T20:57:39;24.60;59.10
